createdAt,value
2019-03-29T00:00:16.011Z,90.23
2019-03-29T00:02:47.776Z,84.50
2019-03-29T00:05:18.219Z,92.13
2019-03-29T00:07:48.975Z,110.10
2019-03-29T00:10:20.266Z,120.00
2019-03-29T00:12:49.781Z,117.17
2019-03-29T00:15:19.251Z,104.47
2019-03-29T00:17:50.528Z,105.83
2019-03-29T00:20:20.211Z,91.23
2019-03-29T00:22:49.847Z,89.57
2019-03-29T00:25:19.982Z,89.40
2019-03-29T00:27:49.423Z,92.80
2019-03-29T00:30:19.070Z,92.50
2019-03-29T00:32:49.508Z,92.17
2019-03-29T00:35:19.986Z,106.30
2019-03-29T00:37:53.840Z,106.17
2019-03-29T00:40:20.569Z,108.53
2019-03-29T00:42:50.991Z,102.00
2019-03-29T00:45:20.546Z,98.17
2019-03-29T00:47:50.086Z,98.17
2019-03-29T00:50:19.594Z,97.13
2019-03-29T00:52:49.026Z,95.43
2019-03-29T00:55:18.509Z,99.90
2019-03-29T00:57:47.941Z,101.07
2019-03-29T01:00:17.596Z,96.73
2019-03-29T01:02:47.226Z,91.67
2019-03-29T01:05:18.243Z,89.20
2019-03-29T01:07:49.674Z,85.80
2019-03-29T01:10:19.591Z,96.07
2019-03-29T01:12:49.040Z,95.40
2019-03-29T01:15:24.456Z,85.37
2019-03-29T01:17:54.982Z,87.23
2019-03-29T01:20:25.633Z,90.23
2019-03-29T01:22:55.062Z,88.60
2019-03-29T01:25:24.577Z,87.07
2019-03-29T01:27:54.005Z,86.30
2019-03-29T01:30:23.686Z,89.17
2019-03-29T01:32:53.179Z,89.90
2019-03-29T01:35:22.710Z,89.07
2019-03-29T01:37:53.221Z,98.53
2019-03-29T01:40:22.830Z,92.53
2019-03-29T01:42:52.313Z,89.40
2019-03-29T01:45:21.852Z,95.80
2019-03-29T01:47:51.284Z,104.83
2019-03-29T01:50:20.922Z,102.47
2019-03-29T01:52:50.382Z,92.73
2019-03-29T01:55:19.851Z,88.90
2019-03-29T01:57:49.291Z,91.57
2019-03-29T02:00:36.086Z,86.33
2019-03-29T02:03:07.139Z,83.07
2019-03-29T02:05:36.611Z,78.63
2019-03-29T02:08:08.200Z,78.17
2019-03-29T02:10:37.734Z,76.93
2019-03-29T02:13:08.152Z,75.83
2019-03-29T02:15:37.922Z,72.77
2019-03-29T02:18:07.729Z,75.13
2019-03-29T02:20:38.262Z,77.17
2019-03-29T02:23:07.789Z,74.57
2019-03-29T02:25:38.221Z,75.27
2019-03-29T02:28:07.723Z,81.43
2019-03-29T02:30:37.299Z,78.13
2019-03-29T02:33:06.870Z,73.53
2019-03-29T02:35:38.434Z,69.83
2019-03-29T02:38:07.459Z,64.43
2019-03-29T02:40:37.029Z,67.30
2019-03-29T02:43:06.530Z,69.70
2019-03-29T02:45:36.018Z,48.43
2019-03-29T02:48:05.469Z,49.87
2019-03-29T02:50:36.649Z,50.07
2019-03-29T02:53:07.373Z,50.83
2019-03-29T02:55:36.876Z,48.43
2019-03-29T02:58:06.411Z,59.67
2019-03-29T03:00:35.984Z,60.07
2019-03-29T03:03:05.509Z,57.03
2019-03-29T03:05:35.117Z,58.30
2019-03-29T03:08:04.707Z,60.03
2019-03-29T03:10:34.182Z,57.90
2019-03-29T03:13:03.647Z,66.43
2019-03-29T03:15:33.159Z,77.53
2019-03-29T03:18:02.670Z,74.87
2019-03-29T03:20:32.202Z,75.57
2019-03-29T03:23:01.787Z,74.03
2019-03-29T03:25:31.315Z,72.63
2019-03-29T03:28:00.819Z,71.70
2019-03-29T03:30:30.330Z,73.33
2019-03-29T03:32:59.853Z,76.50
2019-03-29T03:35:29.410Z,72.60
2019-03-29T03:38:01.032Z,70.27
2019-03-29T03:40:30.460Z,71.47
2019-03-29T03:42:59.916Z,74.23
2019-03-29T03:45:48.680Z,70.03
2019-03-29T03:48:18.162Z,70.83
2019-03-29T03:50:47.733Z,71.63
2019-03-29T03:53:17.722Z,74.27
2019-03-29T03:55:53.194Z,77.50
2019-03-29T03:58:23.677Z,77.67
2019-03-29T04:00:58.139Z,78.17
2019-03-29T04:03:28.011Z,73.53
2019-03-29T04:05:57.827Z,71.73
2019-03-29T04:08:27.661Z,74.27
2019-03-29T04:10:57.578Z,70.63
2019-03-29T04:13:27.177Z,65.47
2019-03-29T04:15:56.764Z,68.93
2019-03-29T04:18:26.398Z,69.07
2019-03-29T04:20:55.958Z,68.83
2019-03-29T04:23:25.610Z,68.20
2019-03-29T04:25:55.162Z,70.60
2019-03-29T04:28:25.670Z,73.93
2019-03-29T04:30:55.143Z,68.33
2019-03-29T04:33:24.633Z,68.90
2019-03-29T04:35:54.123Z,65.57
2019-03-29T04:38:23.667Z,66.57
2019-03-29T04:40:53.163Z,67.33
2019-03-29T04:43:22.717Z,61.83
2019-03-29T04:45:52.207Z,66.97
2019-03-29T04:48:21.674Z,68.93
2019-03-29T04:50:51.219Z,68.27
2019-03-29T04:53:24.713Z,72.30
2019-03-29T04:55:54.145Z,65.33
2019-03-29T04:58:23.679Z,63.63
2019-03-29T05:00:53.188Z,64.17
2019-03-29T05:03:22.658Z,65.53
2019-03-29T05:05:53.051Z,69.00
2019-03-29T05:08:22.577Z,63.23
2019-03-29T05:10:52.027Z,63.00
2019-03-29T05:13:21.465Z,63.83
2019-03-29T05:15:50.921Z,64.97
2019-03-29T05:18:20.546Z,65.93
2019-03-29T05:20:49.987Z,64.07
2019-03-29T05:23:19.555Z,66.80
2019-03-29T05:25:50.961Z,64.93
2019-03-29T05:28:21.562Z,63.90
2019-03-29T05:30:51.065Z,61.13
2019-03-29T05:33:20.572Z,58.17
2019-03-29T05:35:50.043Z,54.20
2019-03-29T05:38:19.523Z,55.83
2019-03-29T05:40:49.980Z,54.87
2019-03-29T05:43:19.474Z,52.13
2019-03-29T05:45:48.891Z,56.23
2019-03-29T05:48:18.439Z,54.47
2019-03-29T05:50:48.492Z,56.77
2019-03-29T05:53:17.987Z,52.50
2019-03-29T05:55:48.478Z,51.30
2019-03-29T05:58:19.178Z,49.40
2019-03-29T06:00:48.618Z,50.93
2019-03-29T06:03:18.132Z,50.30
2019-03-29T06:05:48.536Z,45.87
2019-03-29T06:08:18.096Z,48.13
2019-03-29T06:10:49.250Z,49.93
2019-03-29T06:13:18.763Z,48.30
2019-03-29T06:15:48.191Z,48.53
2019-03-29T06:18:17.730Z,48.20
2019-03-29T06:20:47.265Z,47.37
2019-03-29T06:23:17.921Z,48.37
2019-03-29T06:25:47.493Z,46.87
2019-03-29T06:28:20.408Z,46.83
2019-03-29T06:30:51.877Z,43.90
2019-03-29T06:33:21.539Z,45.53
2019-03-29T06:35:52.053Z,45.13
2019-03-29T06:38:25.690Z,47.10
2019-03-29T06:41:02.723Z,44.27
2019-03-29T06:43:26.622Z,46.07
2019-03-29T06:45:56.099Z,45.77
2019-03-29T06:48:25.540Z,45.87
2019-03-29T06:50:55.084Z,40.60
2019-03-29T06:53:24.546Z,40.10
2019-03-29T06:55:54.099Z,42.13
2019-03-29T06:58:23.497Z,38.07
2019-03-29T07:00:52.970Z,37.97
2019-03-29T07:03:22.456Z,40.53
2019-03-29T07:05:53.048Z,37.10
2019-03-29T07:08:22.536Z,38.80
2019-03-29T07:10:52.085Z,36.25
2019-03-29T07:13:21.602Z,35.67
2019-03-29T07:15:51.052Z,35.17
2019-03-29T07:18:20.472Z,31.90
2019-03-29T07:20:49.969Z,33.93
2019-03-29T07:23:19.444Z,32.23
2019-03-29T07:25:49.650Z,33.07
2019-03-29T07:28:19.078Z,32.23
2019-03-29T07:30:48.524Z,33.30
2019-03-29T07:33:18.053Z,32.70
2019-03-29T07:35:48.594Z,31.57
2019-03-29T07:38:18.102Z,31.93
2019-03-29T07:40:47.608Z,31.40
2019-03-29T07:43:17.082Z,29.30
2019-03-29T07:45:46.616Z,30.07
2019-03-29T07:48:16.040Z,29.40
2019-03-29T07:50:45.586Z,28.23
2019-03-29T07:53:15.140Z,25.70
2019-03-29T07:55:44.661Z,24.23
2019-03-29T07:58:14.192Z,22.03
2019-03-29T08:00:44.731Z,24.65
2019-03-29T08:03:14.150Z,22.87
2019-03-29T08:05:45.164Z,16.27
2019-03-29T08:08:23.786Z,15.33
2019-03-29T08:10:45.868Z,11.47
2019-03-29T08:13:16.245Z,10.23
2019-03-29T08:15:46.197Z,6.73
2019-03-29T08:18:15.809Z,4.97
2019-03-29T08:20:45.258Z,6.17
2019-03-29T08:23:14.794Z,4.87
2019-03-29T08:25:45.469Z,5.23
2019-03-29T08:28:15.003Z,5.17
2019-03-29T08:30:45.954Z,5.33
2019-03-29T08:33:15.450Z,5.43
2019-03-29T08:35:46.055Z,5.73
2019-03-29T08:38:15.483Z,5.70
2019-03-29T08:40:45.430Z,4.90
2019-03-29T08:43:15.033Z,4.80
2019-03-29T08:45:44.568Z,5.80
2019-03-29T08:48:14.307Z,4.90
2019-03-29T08:50:49.704Z,5.60
2019-03-29T08:53:20.375Z,5.70
2019-03-29T08:55:49.962Z,6.47
2019-03-29T08:58:19.575Z,4.93
2019-03-29T09:00:49.279Z,4.67
2019-03-29T09:03:20.024Z,4.70
2019-03-29T09:05:51.120Z,4.60
2019-03-29T09:08:20.702Z,4.33
2019-03-29T09:10:50.232Z,5.43
2019-03-29T09:13:19.939Z,5.83
2019-03-29T09:15:49.387Z,6.37
2019-03-29T09:18:18.823Z,6.33
2019-03-29T09:20:48.369Z,7.17
2019-03-29T09:23:17.841Z,7.00
2019-03-29T09:25:47.282Z,7.07
2019-03-29T09:28:16.823Z,8.00
2019-03-29T09:30:46.403Z,7.27
2019-03-29T09:33:15.889Z,7.93
2019-03-29T09:35:45.437Z,7.60
2019-03-29T09:38:15.157Z,8.07
2019-03-29T09:40:53.491Z,8.70
2019-03-29T09:43:15.902Z,7.77
2019-03-29T09:45:47.285Z,8.07
2019-03-29T09:48:16.913Z,8.70
2019-03-29T09:50:50.414Z,8.47
2019-03-29T09:53:17.840Z,8.30
2019-03-29T09:55:47.485Z,8.17
2019-03-29T09:58:17.153Z,9.23
2019-03-29T10:00:46.750Z,9.87
2019-03-29T10:03:16.187Z,9.97
2019-03-29T10:05:45.751Z,9.93
2019-03-29T10:08:15.328Z,9.43
2019-03-29T10:10:45.848Z,10.10
2019-03-29T10:13:15.406Z,9.43
2019-03-29T10:18:25.155Z,9.77
2019-03-29T10:20:54.802Z,10.20
2019-03-29T10:23:24.294Z,10.67
2019-03-29T10:25:53.693Z,9.00
2019-03-29T10:28:23.262Z,10.30
2019-03-29T10:30:52.965Z,9.80
2019-03-29T10:33:22.525Z,9.63
2019-03-29T10:35:53.099Z,9.43
2019-03-29T10:38:22.791Z,10.10
2019-03-29T10:40:52.208Z,10.80
2019-03-29T10:43:21.725Z,10.03
2019-03-29T10:45:58.842Z,10.10
2019-03-29T10:48:28.359Z,9.90
2019-03-29T10:50:57.853Z,9.63
2019-03-29T10:53:28.978Z,9.83
2019-03-29T10:55:59.667Z,9.97
2019-03-29T10:58:29.102Z,10.00
2019-03-29T11:00:58.610Z,10.10
2019-03-29T11:03:28.878Z,10.33
2019-03-29T11:05:58.624Z,10.30
2019-03-29T11:08:28.151Z,10.50
2019-03-29T11:10:57.569Z,9.93
2019-03-29T11:13:27.335Z,9.80
2019-03-29T11:15:56.920Z,9.90
2019-03-29T11:18:26.500Z,8.50
2019-03-29T11:20:56.043Z,7.80
2019-03-29T11:23:25.521Z,9.03
2019-03-29T11:25:57.470Z,9.07
2019-03-29T11:28:27.079Z,8.93
2019-03-29T11:30:56.488Z,7.20
2019-03-29T11:33:27.148Z,8.27
2019-03-29T11:35:56.696Z,7.23
2019-03-29T11:38:26.162Z,7.03
2019-03-29T11:40:55.563Z,7.07
2019-03-29T11:43:26.963Z,8.57
2019-03-29T11:45:56.335Z,8.03
2019-03-29T11:48:25.859Z,7.73
2019-03-29T11:50:55.379Z,8.50
2019-03-29T11:53:24.848Z,7.83
2019-03-29T11:55:55.283Z,7.00
2019-03-29T11:58:24.917Z,7.23
2019-03-29T12:00:54.398Z,7.10
2019-03-29T12:03:23.857Z,7.20
2019-03-29T12:05:54.414Z,6.63
2019-03-29T12:08:24.176Z,6.07
2019-03-29T12:10:53.668Z,5.30
2019-03-29T12:13:23.195Z,6.07
2019-03-29T12:15:52.862Z,5.80
2019-03-29T12:18:22.447Z,5.47
2019-03-29T12:20:54.382Z,5.07
2019-03-29T12:23:23.052Z,5.37
2019-03-29T12:25:52.694Z,5.30
2019-03-29T12:28:22.221Z,5.87
2019-03-29T12:30:51.735Z,5.97
2019-03-29T12:33:22.261Z,6.63
2019-03-29T12:35:51.821Z,6.80
2019-03-29T12:38:21.220Z,7.00
2019-03-29T12:40:51.663Z,7.20
2019-03-29T12:43:21.217Z,6.90
2019-03-29T12:45:50.736Z,7.30
2019-03-29T12:48:20.224Z,7.53
2019-03-29T12:50:50.036Z,7.33
2019-03-29T12:53:19.676Z,7.30
2019-03-29T12:55:49.185Z,6.73
2019-03-29T12:58:18.728Z,6.93
2019-03-29T13:00:48.350Z,7.80
2019-03-29T13:03:17.985Z,7.13
2019-03-29T13:05:47.563Z,6.40
2019-03-29T13:08:18.108Z,6.70
2019-03-29T13:10:47.700Z,7.10
2019-03-29T13:13:17.248Z,7.13
2019-03-29T13:15:46.740Z,7.23
2019-03-29T13:18:16.238Z,6.60
2019-03-29T13:20:45.752Z,7.23
2019-03-29T13:23:15.240Z,7.00
2019-03-29T13:25:44.658Z,6.87
2019-03-29T13:28:15.153Z,7.30
2019-03-29T13:30:44.898Z,6.13
2019-03-29T13:33:14.446Z,6.33
2019-03-29T13:35:44.659Z,6.80
2019-03-29T13:38:14.395Z,6.97
2019-03-29T13:40:43.854Z,6.70
2019-03-29T13:43:13.342Z,5.40
2019-03-29T13:45:42.806Z,5.47
2019-03-29T13:48:12.291Z,5.00
2019-03-29T13:50:41.816Z,5.57
2019-03-29T13:53:11.375Z,6.30
2019-03-29T13:55:40.825Z,6.83
2019-03-29T13:58:10.300Z,6.10
2019-03-29T14:00:39.852Z,6.30
2019-03-29T14:03:09.291Z,8.20
2019-03-29T14:05:38.944Z,8.83
2019-03-29T14:08:09.627Z,7.77
2019-03-29T14:10:39.202Z,7.60
2019-03-29T14:13:08.714Z,7.90
2019-03-29T14:15:38.148Z,7.77
2019-03-29T14:18:07.799Z,8.30
2019-03-29T14:20:37.434Z,7.83
2019-03-29T14:23:07.031Z,9.27
2019-03-29T14:25:36.630Z,9.60
2019-03-29T14:28:06.112Z,8.40
2019-03-29T14:30:35.608Z,8.47
2019-03-29T14:33:05.168Z,8.00
2019-03-29T14:35:35.745Z,8.37
2019-03-29T14:38:05.311Z,10.00
2019-03-29T14:40:34.851Z,10.60
2019-03-29T14:43:10.224Z,9.93
2019-03-29T14:45:41.666Z,10.33
2019-03-29T14:48:11.216Z,10.30
2019-03-29T14:50:40.791Z,10.07
2019-03-29T14:53:10.326Z,10.87
2019-03-29T14:55:39.805Z,10.70
2019-03-29T14:58:09.271Z,8.87
2019-03-29T15:00:43.703Z,9.37
2019-03-29T15:03:13.486Z,9.83
2019-03-29T15:05:43.095Z,8.33
2019-03-29T15:08:12.665Z,8.57
2019-03-29T15:10:45.473Z,7.97
2019-03-29T15:13:13.367Z,9.13
2019-03-29T15:15:42.848Z,8.47
2019-03-29T15:18:12.389Z,8.10
2019-03-29T15:20:52.707Z,7.47
2019-03-29T15:23:13.046Z,7.90
2019-03-29T15:25:42.512Z,8.87
2019-03-29T15:28:12.101Z,7.73
2019-03-29T15:30:41.580Z,8.43
2019-03-29T15:33:11.013Z,8.13
2019-03-29T15:35:40.414Z,8.00
2019-03-29T15:38:09.861Z,8.90
2019-03-29T15:40:39.347Z,8.90
2019-03-29T15:43:09.960Z,8.47
2019-03-29T15:45:40.332Z,9.13
2019-03-29T15:48:09.966Z,9.83
2019-03-29T15:50:39.453Z,9.93
2019-03-29T15:53:09.031Z,9.97
2019-03-29T15:55:38.440Z,9.40
2019-03-29T15:58:07.883Z,9.73
2019-03-29T16:00:39.143Z,9.30
2019-03-29T16:03:08.686Z,8.83
2019-03-29T16:05:39.803Z,9.47
2019-03-29T16:08:10.331Z,10.23
2019-03-29T16:10:41.396Z,11.53
2019-03-29T16:13:11.195Z,11.33
2019-03-29T16:15:40.705Z,11.23
2019-03-29T16:18:11.701Z,10.63
2019-03-29T16:20:41.225Z,11.00
2019-03-29T16:23:10.870Z,10.30
2019-03-29T16:25:40.310Z,11.00
2019-03-29T16:28:09.943Z,10.30
2019-03-29T16:30:39.560Z,12.97
2019-03-29T16:33:09.004Z,11.67
2019-03-29T16:35:38.536Z,12.27
2019-03-29T16:38:09.148Z,11.67
2019-03-29T16:40:38.689Z,12.37
2019-03-29T16:43:08.246Z,12.23
2019-03-29T16:45:47.807Z,14.13
2019-03-29T16:48:12.545Z,17.13
2019-03-29T16:50:42.172Z,16.13
2019-03-29T16:53:11.612Z,14.17
2019-03-29T16:55:41.199Z,10.50
2019-03-29T16:58:10.950Z,12.83
2019-03-29T17:00:40.477Z,12.77
2019-03-29T17:03:10.049Z,11.87
2019-03-29T17:05:42.016Z,11.03
2019-03-29T17:08:10.731Z,10.63
2019-03-29T17:10:40.224Z,10.67
2019-03-29T17:13:09.806Z,10.87
2019-03-29T17:15:39.389Z,11.20
2019-03-29T17:18:08.953Z,11.40
2019-03-29T17:20:40.040Z,12.13
2019-03-29T17:23:09.498Z,20.17
2019-03-29T17:25:38.950Z,13.90
2019-03-29T17:28:08.565Z,16.17
2019-03-29T17:30:41.662Z,13.83
2019-03-29T17:33:12.274Z,13.07
2019-03-29T17:35:41.884Z,14.63
2019-03-29T17:38:11.318Z,15.23
2019-03-29T17:40:40.822Z,14.73
2019-03-29T17:43:10.329Z,18.07
2019-03-29T17:45:39.941Z,19.47
2019-03-29T17:48:09.566Z,23.07
2019-03-29T17:50:39.702Z,24.93
2019-03-29T17:53:10.935Z,24.53
2019-03-29T17:55:40.430Z,24.07
2019-03-29T17:58:10.002Z,24.67
2019-03-29T18:00:39.420Z,25.20
2019-03-29T18:03:09.972Z,23.33
2019-03-29T18:05:39.469Z,16.23
2019-03-29T18:08:09.033Z,16.27
2019-03-29T18:10:38.660Z,20.60
2019-03-29T18:13:08.092Z,24.97
2019-03-29T18:15:37.657Z,22.83
2019-03-29T18:18:07.068Z,20.77
2019-03-29T18:20:36.583Z,19.17
2019-03-29T18:23:07.006Z,19.50
2019-03-29T18:25:37.531Z,27.07
2019-03-29T18:28:07.041Z,31.83
2019-03-29T18:30:38.957Z,42.23
2019-03-29T18:33:08.597Z,45.83
2019-03-29T18:35:38.359Z,41.27
2019-03-29T18:38:08.015Z,37.77
2019-03-29T18:40:38.483Z,39.83
2019-03-29T18:43:07.989Z,40.13
2019-03-29T18:45:41.358Z,39.17
2019-03-29T18:48:08.855Z,41.87
2019-03-29T18:50:38.354Z,41.57
2019-03-29T18:53:07.841Z,45.37
2019-03-29T18:55:37.375Z,50.00
2019-03-29T18:58:06.979Z,38.57
2019-03-29T19:00:36.618Z,35.53
2019-03-29T19:03:06.177Z,32.73
2019-03-29T19:05:36.019Z,24.33
2019-03-29T19:08:08.806Z,25.87
2019-03-29T19:10:38.689Z,35.93
2019-03-29T19:13:09.338Z,40.63
2019-03-29T19:15:39.951Z,47.37
2019-03-29T19:18:09.641Z,62.83
2019-03-29T19:20:39.190Z,49.97
2019-03-29T19:23:08.783Z,42.07
2019-03-29T19:25:38.310Z,46.57
2019-03-29T19:28:07.874Z,55.20
2019-03-29T19:30:38.437Z,58.20
2019-03-29T19:33:08.046Z,70.47
2019-03-29T19:35:37.603Z,80.83
2019-03-29T19:38:07.242Z,117.33
2019-03-29T19:40:37.684Z,221.90
2019-03-29T19:43:07.200Z,116.93
2019-03-29T19:45:38.603Z,84.83
2019-03-29T19:48:08.138Z,88.13
2019-03-29T19:50:37.681Z,85.83
2019-03-29T19:53:08.160Z,98.20
2019-03-29T19:55:37.679Z,48.17
2019-03-29T19:58:07.175Z,36.07
2019-03-29T20:00:41.055Z,67.47
2019-03-29T20:03:10.780Z,89.50
2019-03-29T20:05:40.404Z,50.00
2019-03-29T20:08:09.975Z,85.00
2019-03-29T20:10:39.553Z,99.22
2019-03-29T20:13:09.092Z,70.63
2019-03-29T20:15:39.647Z,66.83
2019-03-29T20:18:09.190Z,62.03
2019-03-29T20:20:38.632Z,49.43
2019-03-29T20:23:08.231Z,43.80
2019-03-29T20:25:37.765Z,35.10
2019-03-29T20:28:08.421Z,30.93
2019-03-29T20:30:37.980Z,30.07
2019-03-29T20:33:07.897Z,31.23
2019-03-29T20:35:38.127Z,32.53
2019-03-29T20:38:09.563Z,33.53
2019-03-29T20:40:39.756Z,35.67
2019-03-29T20:43:09.244Z,41.30
2019-03-29T20:45:39.379Z,43.03
2019-03-29T20:48:08.794Z,43.20
2019-03-29T20:50:39.002Z,49.10
2019-03-29T20:53:11.587Z,45.00
2019-03-29T20:55:41.208Z,44.63
2019-03-29T20:58:11.330Z,46.43
2019-03-29T21:00:40.853Z,48.53
2019-03-29T21:03:12.634Z,54.43
2019-03-29T21:05:42.242Z,55.73
2019-03-29T21:08:12.625Z,64.13
2019-03-29T21:10:55.048Z,64.10
2019-03-29T21:13:14.110Z,61.53
2019-03-29T21:15:43.709Z,55.93
2019-03-29T21:18:17.242Z,57.50
2019-03-29T21:20:45.087Z,61.40
2019-03-29T21:23:15.308Z,59.27
2019-03-29T21:25:45.392Z,53.27
2019-03-29T21:28:16.692Z,62.83
2019-03-29T21:30:47.223Z,73.23
2019-03-29T21:33:20.577Z,82.50
2019-03-29T21:35:50.778Z,90.93
2019-03-29T21:38:21.003Z,82.47
2019-03-29T21:40:51.224Z,56.43
2019-03-29T21:43:21.427Z,66.30
2019-03-29T21:45:51.582Z,66.57
2019-03-29T21:48:29.350Z,55.23
2019-03-29T21:50:53.477Z,50.60
2019-03-29T21:53:23.768Z,44.03
2019-03-29T21:55:53.847Z,41.57
2019-03-29T21:58:23.376Z,50.70
2019-03-29T22:00:53.623Z,60.17
2019-03-29T22:03:23.062Z,63.43
2019-03-29T22:05:53.462Z,63.43
2019-03-29T22:08:25.370Z,57.13
2019-03-29T22:10:55.546Z,55.87
2019-03-29T22:13:25.022Z,55.90
2019-03-29T22:15:56.083Z,44.77
2019-03-29T22:18:37.223Z,42.57
2019-03-29T22:20:58.477Z,42.40
2019-03-29T22:23:28.755Z,37.87
2019-03-29T22:25:59.335Z,34.17
2019-03-29T22:28:29.644Z,38.97
2019-03-29T22:31:00.914Z,37.67
2019-03-29T22:33:31.242Z,41.27
2019-03-29T22:36:00.781Z,42.33
2019-03-29T22:38:31.045Z,136.00
2019-03-29T22:41:01.288Z,148.80
2019-03-29T22:43:31.549Z,82.10
2019-03-29T22:46:01.950Z,71.43
2019-03-29T22:48:32.585Z,31.10
2019-03-29T22:51:02.703Z,33.07
2019-03-29T22:53:32.342Z,33.30
2019-03-29T22:56:02.602Z,33.10
2019-03-29T22:58:33.239Z,32.83
2019-03-29T23:01:05.435Z,34.13
2019-03-29T23:03:36.684Z,34.50
2019-03-29T23:06:07.074Z,35.90
2019-03-29T23:08:37.235Z,37.37
2019-03-29T23:11:07.864Z,32.17
2019-03-29T23:13:38.202Z,31.27
2019-03-29T23:16:08.451Z,30.67
2019-03-29T23:18:38.707Z,32.50
2019-03-29T23:21:08.867Z,31.03
2019-03-29T23:23:39.070Z,31.50
2019-03-29T23:26:10.373Z,32.07
2019-03-29T23:28:40.538Z,31.00
2019-03-29T23:31:11.131Z,31.17
2019-03-29T23:33:41.419Z,31.27
2019-03-29T23:36:11.855Z,29.27
2019-03-29T23:38:42.230Z,28.77
2019-03-29T23:41:12.475Z,29.77
2019-03-29T23:43:43.633Z,30.13
2019-03-29T23:46:13.808Z,36.63
2019-03-29T23:48:44.287Z,36.70
2019-03-29T23:51:14.483Z,35.37
2019-03-29T23:53:44.620Z,32.07
2019-03-29T23:56:14.346Z,34.17
2019-03-29T23:58:44.610Z,32.73
